Time;durP1;ratioP1;P1;durP2;ratioP2;P2;SDS_P1;SDS_P2;PMS_P1;PMS_P2;Temp;Humidity;BMP_temperature;BMP_pressure;BME280_temperature;BME280_humidity;BME280_pressure;Samples;Min_cycle;Max_cycle;Signal;HPM_P1;HPM_P2
2021/08/17 00:04:25;;;;;;;1999.90;999.90;;;;;;;15.11;72.07;100458.84;15483448;28;20057;-74
2021/08/17 00:12:01;;;;;;;1999.90;999.90;;;;;;;15.34;72.35;100467.34;15501840;28;20133;-74
2021/08/17 00:19:33;;;;;;;;;;;;;;;15.45;71.33;100448.66;15500088;28;20100;-74
2021/08/17 00:27:07;;;;;;;1999.90;999.90;;;;;;;15.50;71.51;100448.34;15499802;28;19922;-74
2021/08/17 00:34:39;;;;;;;;;;;;;;;15.39;71.12;100438.91;15500785;28;20046;-75
2021/08/17 00:42:12;;;;;;;1999.90;999.90;;;;;;;15.45;70.29;100436.59;15499022;28;19976;-74
2021/08/17 00:49:46;;;;;;;1999.90;999.90;;;;;;;15.57;70.22;100453.31;15498553;28;20101;-74
2021/08/17 00:57:20;;;;;;;1999.90;999.90;;;;;;;15.29;70.82;100442.31;15498615;28;20108;-74
2021/08/17 01:04:52;;;;;;;;;;;;;;;15.36;71.09;100428.41;15481113;28;20054;-74
2021/08/17 01:12:25;;;;;;;1999.90;999.90;;;;;;;15.44;70.04;100427.38;15480851;28;19975;-75
2021/08/17 01:19:57;;;;;;;1999.90;999.90;;;;;;;15.51;70.11;100433.09;15495957;28;20446;-74
2021/08/17 01:27:31;;;;;;;1999.90;999.90;;;;;;;15.36;70.08;100430.41;15497457;28;20057;-74
2021/08/17 01:35:03;;;;;;;;;;;;;;;15.32;69.82;100424.72;15481446;28;20117;-74
2021/08/17 01:42:37;;;;;;;1999.90;999.90;;;;;;;15.40;69.78;100426.47;15477939;28;19992;-74
2021/08/17 01:50:12;;;;;;;1999.90;999.90;;;;;;;14.96;70.98;100424.00;15477545;28;20074;-75
2021/08/17 01:57:46;;;;;;;1999.90;999.90;;;;;;;15.27;69.92;100425.00;15495057;28;20154;-75
2021/08/17 02:05:20;;;;;;;1999.90;999.90;;;;;;;15.17;70.14;100436.84;15507106;28;20046;-75
2021/08/17 02:12:54;;;;;;;1999.90;999.90;;;;;;;15.39;69.29;100421.22;15494505;28;20057;-74
2021/08/17 02:20:26;;;;;;;1999.90;999.90;;;;;;;15.36;69.21;100422.78;15491271;28;20149;-73
2021/08/17 02:28:00;;;;;;;1999.90;999.90;;;;;;;15.25;69.40;100430.19;15494512;28;20062;-74
2021/08/17 02:35:34;;;;;;;1999.90;999.90;;;;;;;15.32;69.16;100430.34;15497958;28;20527;-74
2021/08/17 02:43:07;;;;;;;1999.90;999.90;;;;;;;15.33;69.52;100423.53;15492805;28;20569;-74
2021/08/17 02:50:39;;;;;;;;;;;;;;;15.46;69.12;100418.56;15475109;28;20070;-74
2021/08/17 02:58:13;;;;;;;1999.90;999.90;;;;;;;15.52;68.86;100417.84;15458560;28;19921;-74
2021/08/17 03:05:45;;;;;;;;;;;;;;;15.75;68.46;100431.16;15491943;28;20522;-75
2021/08/17 03:13:18;;;;;;;1999.90;999.90;;;;;;;15.51;68.97;100432.28;15475204;28;20425;-74
2021/08/17 03:20:50;;;;;;;;;;;;;;;15.97;68.03;100430.34;15472998;28;20045;-74
2021/08/17 03:28:24;;;;;;;1999.90;999.90;;;;;;;15.74;68.71;100438.78;15473865;28;19926;-75
2021/08/17 03:35:56;;;;;;;;;;;;;;;15.93;67.89;100428.63;15472519;28;20077;-74
2021/08/17 03:43:31;;;;;;;1999.90;999.90;;;;;;;16.02;67.83;100426.38;15492204;28;19921;-74
2021/08/17 03:51:03;;;;;;;1999.90;999.90;;;;;;;15.90;68.93;100432.22;15577565;22;20098;-74
2021/08/17 03:58:37;;;;;;;1999.90;999.90;;;;;;;16.00;68.57;100421.13;15738762;28;20450;-73
2021/08/17 04:06:09;;;;;;;;;;;;;;;16.40;67.67;100434.66;15804995;28;20155;-74
2021/08/17 04:13:42;;;;;;;1999.90;999.90;;;;;;;16.27;68.18;100443.69;15792431;28;20296;-73
2021/08/17 04:21:14;;;;;;;;;;;;;;;16.30;67.97;100440.13;15808790;28;20040;-74
2021/08/17 04:28:48;;;;;;;1999.90;999.90;;;;;;;16.28;68.45;100454.56;15803446;28;19924;-74
2021/08/17 04:36:20;;;;;;;1999.90;999.90;;;;;;;16.49;68.00;100465.34;15853366;28;20078;-75
2021/08/17 04:43:54;;;;;;;1999.90;999.90;;;;;;;16.62;67.73;100455.47;15854894;28;20058;-75
2021/08/17 04:51:27;;;;;;;1999.90;999.90;;;;;;;16.65;68.03;100465.97;15854329;28;20048;-73
2021/08/17 04:59:03;;;;;;;1999.90;999.90;;;;;;;16.44;68.70;100476.94;15836870;28;20043;-76
2021/08/17 05:06:36;;;;;;;1999.90;999.90;;;;;;;16.31;69.40;100481.97;15840011;28;20109;-76
2021/08/17 05:14:09;;;;;;;1999.90;999.90;;;;;;;16.48;69.54;100497.53;15806461;28;20447;-75
2021/08/17 05:21:41;;;;;;;1999.90;999.90;;;;;;;16.83;68.75;100502.09;15804655;28;20052;-75
2021/08/17 05:29:15;;;;;;;1999.90;999.90;;;;;;;16.50;70.19;100525.31;15821729;28;20325;-75
2021/08/17 05:36:47;;;;;;;;;;;;;;;16.30;71.40;100513.31;15833639;28;20048;-74
2021/08/17 05:44:20;;;;;;;1999.90;999.90;;;;;;;16.66;70.99;100531.59;15834925;28;19920;-74
2021/08/17 05:51:54;;;;;;;1999.90;999.90;;;;;;;16.65;71.51;100553.31;15850068;28;20047;-75
2021/08/17 05:59:32;;;;;;;1999.90;999.90;;;;;;;16.56;71.59;100571.66;15866340;28;20050;-75
2021/08/17 06:07:06;;;;;;;1999.90;999.90;;;;;;;16.31;72.44;100569.25;15865926;28;20078;-76
2021/08/17 06:14:41;;;;;;;1999.90;999.90;;;;;;;16.68;71.41;100569.50;15866371;28;20047;-75
2021/08/17 06:22:13;;;;;;;1999.90;999.90;;;;;;;16.57;71.62;100590.19;15862867;28;20039;-75
2021/08/17 06:29:47;;;;;;;1999.90;999.90;;;;;;;16.97;70.24;100573.56;15843575;28;20048;-75
2021/08/17 06:37:19;;;;;;;;;;;;;;;17.05;69.67;100591.41;15802069;28;20143;-74
2021/08/17 06:44:52;;;;;;;1999.90;999.90;;;;;;;17.07;69.11;100607.94;15783774;28;19920;-73
2021/08/17 06:52:24;;;;;;;1999.90;999.90;;;;;;;16.92;69.80;100592.81;15800979;28;20050;-75
2021/08/17 06:59:58;;;;;;;1999.90;999.90;;;;;;;17.01;69.64;100607.47;15801227;28;20048;-73
2021/08/17 07:07:31;;;;;;;1999.90;999.90;;;;;;;16.95;69.18;100606.94;15799595;28;20488;-74
2021/08/17 07:15:05;;;;;;;1999.90;999.90;;;;;;;17.27;68.70;100615.88;15800917;28;20043;-76
2021/08/17 07:22:37;;;;;;;1999.90;999.90;;;;;;;17.49;68.18;100621.81;15799014;28;20109;-75
2021/08/17 07:30:12;;;;;;;1999.90;999.90;;;;;;;17.34;68.35;100625.66;15824982;28;20093;-76
2021/08/17 07:37:49;;;;;;;1999.90;999.90;;;;;;;17.26;68.79;100636.00;15868946;28;20044;-75
2021/08/17 07:45:22;;;;;;;1999.90;999.90;;;;;;;17.92;67.52;100642.97;15875932;28;20039;-75
2021/08/17 07:52:55;;;;;;;1999.90;999.90;;;;;;;17.39;67.55;100637.41;15853591;28;20040;-75
2021/08/17 08:00:29;;;;;;;1999.90;999.90;;;;;;;17.40;68.04;100641.03;15874100;28;20393;-75
2021/08/17 08:08:01;;;;;;;1999.90;999.90;;;;;;;17.12;68.55;100664.81;15854659;28;20337;-75
2021/08/17 08:15:35;;;;;;;1999.90;999.90;;;;;;;17.23;68.44;100674.25;15855621;28;20040;-76
2021/08/17 08:23:10;;;;;;;1999.90;999.90;;;;;;;17.05;68.60;100678.78;15872101;28;20047;-75
2021/08/17 08:30:44;;;;;;;1999.90;999.90;;;;;;;17.38;67.45;100685.72;15825710;28;20051;-75
2021/08/17 08:38:22;;;;;;;1999.90;999.90;;;;;;;17.26;68.11;100696.03;15809431;28;20507;-76
2021/08/17 08:45:58;;;;;;;1999.90;999.90;;;;;;;17.36;68.34;100705.03;15809823;28;20040;-76
2021/08/17 08:53:30;;;;;;;1999.90;999.90;;;;;;;16.99;69.60;100708.50;15791059;28;20097;-74
2021/08/17 09:01:04;;;;;;;1999.90;999.90;;;;;;;16.91;68.97;100721.66;15789089;28;20036;-73
2021/08/17 09:08:36;;;;;;;1999.90;999.90;;;;;;;17.22;68.74;100720.56;15807089;28;20051;-75
2021/08/17 09:16:27;;;;;;;1999.90;999.90;;;;;;;17.44;67.54;100718.88;15806925;28;20062;-75
2021/08/17 09:24:15;;;;;;;;;;;;;;;17.89;65.57;100723.59;15786391;28;20044;-75
2021/08/17 09:31:51;;;;;;;1999.90;999.90;;;;;;;17.46;66.49;100721.31;15821997;28;19959;-75
2021/08/17 09:39:29;;;;;;;1999.90;999.90;;;;;;;17.99;65.18;100724.13;15868317;28;20599;-75
2021/08/17 09:47:03;;;;;;;1999.90;999.90;;;;;;;18.66;62.87;100719.31;15870093;28;20032;-75
2021/08/17 09:54:39;;;;;;;1999.90;999.90;;;;;;;18.44;62.89;100718.25;15756964;22;20577;-60
2021/08/17 10:02:15;;;;;;;1999.90;999.90;;;;;;;18.26;63.48;100722.84;15677642;28;20041;-61
2021/08/17 10:09:53;;;;;;;1999.90;999.90;;;;;;;18.35;63.36;100729.03;15680421;28;20064;-61
2021/08/17 10:17:27;;;;;;;1999.90;999.90;;;;;;;18.32;61.36;100712.81;15680033;28;20073;-63
2021/08/17 10:25:05;;;;;;;1999.90;999.90;;;;;;;18.61;60.18;100725.25;15661895;28;20060;-61
2021/08/17 10:32:48;;;;;;;1999.90;999.90;;;;;;;18.38;60.49;100728.25;15705253;28;20037;-59
2021/08/17 10:41:03;;;;;;;1999.90;999.90;;;;;;;20.02;56.55;100731.69;15722883;28;20044;-61
2021/08/17 10:48:56;;;;;;;1999.90;999.90;;;;;;;19.74;56.67;100750.13;15721113;28;20072;-61
2021/08/17 10:56:33;;;;;;;1999.90;999.90;;;;;;;18.86;60.42;100748.19;15740263;28;20056;-61
2021/08/17 11:04:09;;;;;;;1999.90;999.90;;;;;;;18.64;61.53;100758.44;15706147;28;20385;-62
2021/08/17 11:11:44;;;;;;;1999.90;999.90;;;;;;;20.02;59.43;100769.31;15745372;28;20090;-60
2021/08/17 11:19:20;;;;;;;1999.90;999.90;;;;;;;18.61;60.18;100775.31;15734540;28;20485;-60
2021/08/17 11:26:55;;;;;;;1999.90;999.90;;;;;;;18.93;63.58;100784.16;15734327;28;20412;-61
2021/08/17 11:34:31;;;;;;;1999.90;999.90;;;;;;;18.58;60.95;100791.03;15692341;28;20056;-61
2021/08/17 11:42:18;;;;;;;1999.90;999.90;;;;;;;18.60;60.32;100773.69;15689017;28;20476;-62
2021/08/17 11:49:53;;;;;;;1999.90;999.90;;;;;;;18.96;59.32;100763.59;15688102;28;20049;-60
2021/08/17 11:57:30;;;;;;;1999.90;999.90;;;;;;;19.96;57.44;100767.25;15654625;28;20406;-61
2021/08/17 12:05:05;;;;;;;1999.90;999.90;;;;;;;20.42;54.55;100761.78;15687521;28;20556;-62
2021/08/17 12:13:02;;;;;;;1999.90;999.90;;;;;;;20.08;55.24;100767.72;15687769;28;20073;-60
2021/08/17 12:20:38;;;;;;;1999.90;999.90;;;;;;;19.72;56.26;100755.38;15682845;28;20064;-60
2021/08/17 12:28:14;;;;;;;1999.90;999.90;;;;;;;19.53;57.28;100766.94;15724039;28;20083;-60
2021/08/17 12:35:55;;;;;;;1999.90;999.90;;;;;;;19.72;56.16;100772.34;15719753;28;20129;-58
2021/08/17 12:43:28;;;;;;;1999.90;999.90;;;;;;;19.75;56.22;100765.91;15685940;28;20049;-60
2021/08/17 12:51:01;;;;;;;1999.90;999.90;;;;;;;19.68;53.38;100756.53;15680527;28;20044;-61
2021/08/17 12:58:33;;;;;;;1999.90;999.90;;;;;;;19.83;54.42;100744.13;15747192;28;20056;-58
2021/08/17 13:06:07;;;;;;;1999.90;999.90;;;;;;;19.73;53.59;100747.69;15728063;28;20536;-59
2021/08/17 13:13:39;;;;;;;1999.90;999.90;;;;;;;19.54;55.20;100746.72;15745696;28;20060;-61
2021/08/17 13:21:13;;;;;;;1999.90;999.90;;;;;;;19.45;55.73;100736.94;15726202;28;20041;-60
2021/08/17 13:28:45;;;;;;;1999.90;999.90;;;;;;;19.41;55.92;100751.09;15681450;28;20049;-61
2021/08/17 13:36:18;;;;;;;1999.90;999.90;;;;;;;20.04;57.01;100738.56;15679776;28;20099;-61
2021/08/17 13:43:52;;;;;;;1999.90;999.90;;;;;;;20.05;53.43;100733.72;15681889;28;20044;-60
2021/08/17 13:51:26;;;;;;;1999.90;999.90;;;;;;;20.63;52.36;100739.19;15661034;28;20041;-61
2021/08/17 13:58:58;;;;;;;1999.90;999.90;;;;;;;21.19;51.40;100734.84;15681055;28;20051;-61
2021/08/17 14:06:32;;;;;;;1999.90;999.90;;;;;;;21.22;51.42;100733.22;15661698;28;20072;-61
2021/08/17 14:14:05;;;;;;;1999.90;999.90;;;;;;;20.69;53.05;100739.63;15677728;28;20116;-58
2021/08/17 14:21:40;;;;;;;1999.90;999.90;;;;;;;21.68;50.27;100732.41;15646411;28;20095;-60
2021/08/17 14:29:12;;;;;;;1999.90;999.90;;;;;;;21.25;50.76;100736.03;15679297;28;20099;-60
2021/08/17 14:36:46;;;;;;;1999.90;999.90;;;;;;;20.67;49.75;100759.06;15676888;28;20036;-60
2021/08/17 14:44:18;;;;;;;1999.90;999.90;;;;;;;20.81;50.57;100764.78;15651873;28;20041;-60
2021/08/17 14:51:51;;;;;;;1999.90;999.90;;;;;;;20.80;50.85;100753.84;15673625;28;20057;-59
2021/08/17 14:59:24;;;;;;;1999.90;999.90;;;;;;;20.55;51.03;100763.09;15674148;28;20052;-60
2021/08/17 15:06:57;;;;;;;1999.90;999.90;;;;;;;20.24;52.06;100763.75;15638767;28;20056;-60
2021/08/17 15:14:30;;;;;;;1999.90;999.90;;;;;;;19.83;52.14;100761.91;15656923;28;20049;-59
2021/08/17 15:22:04;;;;;;;1999.90;999.90;;;;;;;19.76;52.46;100766.72;15676863;28;20053;-59
2021/08/17 15:29:37;;;;;;;1999.90;999.90;;;;;;;19.89;55.57;100782.16;15729530;22;20468;-57
2021/08/17 15:37:11;;;;;;;;;;;;;;;19.70;55.49;100773.97;15732763;28;20044;-60
2021/08/17 15:44:43;;;;;;;1999.90;999.90;;;;;;;19.58;54.21;100767.38;15732610;28;19986;-59
2021/08/17 15:52:16;;;;;;;1999.90;999.90;;;;;;;19.59;53.72;100762.53;15726053;28;20048;-59
2021/08/17 15:59:49;;;;;;;1999.90;999.90;;;;;;;19.85;53.06;100767.19;15729467;28;20052;-55
2021/08/17 16:07:22;;;;;;;1999.90;999.90;;;;;;;19.84;52.93;100762.72;15740552;28;20036;-59
2021/08/17 16:14:54;;;;;;;1999.90;999.90;;;;;;;19.73;52.70;100761.84;15726569;28;20107;-59
2021/08/17 16:22:28;;;;;;;1999.90;999.90;;;;;;;19.97;53.65;100774.53;15716850;28;20041;-59
2021/08/17 16:30:01;;;;;;;1999.90;999.90;;;;;;;19.97;53.94;100758.34;15713775;28;20135;-53
2021/08/17 16:37:34;;;;;;;1999.90;999.90;;;;;;;19.60;53.87;100769.84;15740869;28;20043;-61
2021/08/17 16:45:09;;;;;;;1999.90;999.90;;;;;;;19.98;54.09;100757.13;15741534;28;20044;-58
2021/08/17 16:52:44;;;;;;;1999.90;999.90;;;;;;;19.81;53.77;100753.00;15722866;28;20045;-59
2021/08/17 17:00:16;;;;;;;1999.90;999.90;;;;;;;19.97;53.71;100754.69;15736246;28;20397;-59
2021/08/17 17:07:50;;;;;;;1999.90;999.90;;;;;;;20.00;54.00;100762.41;15738647;28;20068;-60
2021/08/17 17:15:22;;;;;;;1999.90;999.90;;;;;;;19.88;53.34;100761.53;15737284;28;20583;-56
2021/08/17 17:22:56;;;;;;;1999.90;999.90;;;;;;;19.92;53.64;100760.75;15708370;28;20041;-58
2021/08/17 17:30:28;;;;;;;1999.90;999.90;;;;;;;19.68;53.64;100763.00;15735279;28;20045;-58
2021/08/17 17:38:03;;;;;;;;;;;;;;;19.54;53.47;100763.72;15737424;28;20136;-57
2021/08/17 17:45:35;;;;;;;1999.90;999.90;;;;;;;19.59;53.34;100754.91;15736162;28;19925;-58
2021/08/17 17:53:11;;;;;;;1999.90;999.90;;;;;;;19.52;53.47;100751.16;15716529;28;20366;-56
2021/08/17 18:00:43;;;;;;;1999.90;999.90;;;;;;;19.69;53.05;100758.97;15716193;28;20123;-59
2021/08/17 18:08:17;;;;;;;1999.90;999.90;;;;;;;19.67;53.03;100754.91;15734640;28;20048;-56
2021/08/17 18:15:49;;;;;;;1999.90;999.90;;;;;;;19.91;53.08;100759.94;15733486;28;20041;-56
2021/08/17 18:23:23;;;;;;;1999.90;999.90;;;;;;;19.79;53.84;100760.25;15714596;28;20094;-55
2021/08/17 18:30:55;;;;;;;1999.90;999.90;;;;;;;19.68;54.57;100768.69;15731588;28;20040;-59
2021/08/17 18:38:29;;;;;;;1999.90;999.90;;;;;;;19.60;55.30;100772.69;15733076;28;20135;-58
2021/08/17 18:46:01;;;;;;;1999.90;999.90;;;;;;;19.36;55.57;100782.56;15732989;28;20044;-59
2021/08/17 18:53:34;;;;;;;1999.90;999.90;;;;;;;18.88;56.26;100802.31;15732292;28;20416;-59
2021/08/17 19:01:07;;;;;;;1999.90;999.90;;;;;;;18.77;58.91;100798.56;15732272;28;20109;-57
2021/08/17 19:08:40;;;;;;;1999.90;999.90;;;;;;;18.30;59.69;100805.63;15731147;28;20033;-57
2021/08/17 19:16:13;;;;;;;1999.90;999.90;;;;;;;18.33;59.36;100796.38;15730860;28;20044;-60
2021/08/17 19:23:46;;;;;;;1999.90;999.90;;;;;;;18.43;59.06;100804.16;15728613;28;20458;-60
2021/08/17 19:31:19;;;;;;;1999.90;999.90;;;;;;;18.11;59.20;100808.56;15722375;28;20056;-58
2021/08/17 19:38:53;;;;;;;;;;;;;;;17.92;59.63;100803.88;15743062;28;20053;-60
2021/08/17 19:46:25;;;;;;;;;;;;;;;17.95;59.71;100799.50;15724207;28;19921;-58
2021/08/17 19:53:59;;;;;;;1999.90;999.90;;;;;;;17.82;60.65;100796.91;15721701;28;20360;-59
2021/08/17 20:01:35;;;;;;;1999.90;999.90;;;;;;;17.76;61.35;100795.59;15741837;28;20152;-60
2021/08/17 20:09:23;;;;;;;1999.90;999.90;;;;;;;17.89;61.71;100796.97;15686185;28;20036;-60
2021/08/17 20:17:06;;;;;;;1999.90;999.90;;;;;;;17.77;62.15;100794.38;15726229;28;20373;-57
2021/08/17 20:24:56;;;;;;;1999.90;999.90;;;;;;;18.11;61.78;100791.63;15732169;28;20047;-60
2021/08/17 20:32:41;;;;;;;1999.90;999.90;;;;;;;18.00;62.13;100796.31;15727615;28;20076;-58
2021/08/17 20:40:18;;;;;;;1999.90;999.90;;;;;;;17.94;62.50;100797.88;15734041;28;20453;-59
2021/08/17 20:47:51;;;;;;;1999.90;999.90;;;;;;;17.89;62.35;100796.16;15736233;28;20091;-59
2021/08/17 20:55:24;;;;;;;1999.90;999.90;;;;;;;17.85;62.68;100796.13;15738123;28;20064;-59
2021/08/17 21:02:56;;;;;;;1999.90;999.90;;;;;;;17.74;63.03;100792.34;15712306;28;20041;-61
2021/08/17 21:10:30;;;;;;;1999.90;999.90;;;;;;;17.39;64.26;100800.16;15691875;28;20152;-57
2021/08/17 21:18:02;;;;;;;1999.90;999.90;;;;;;;17.39;64.03;100797.34;15701792;28;20056;-58
2021/08/17 21:25:36;;;;;;;1999.90;999.90;;;;;;;17.25;64.96;100798.75;15731300;28;20048;-59
2021/08/17 21:33:08;;;;;;;1999.90;999.90;;;;;;;17.34;64.65;100792.84;15752284;22;20064;-61
2021/08/17 21:40:41;;;;;;;1999.90;999.90;;;;;;;17.43;64.65;100803.88;15778522;28;20051;-61
2021/08/17 21:48:14;;;;;;;1999.90;999.90;;;;;;;17.42;64.57;100799.44;15839034;28;20040;-60
2021/08/17 21:55:47;;;;;;;1999.90;999.90;;;;;;;17.07;65.77;100794.78;15849401;28;20561;-61
2021/08/17 22:03:20;;;;;;;1999.90;999.90;;;;;;;17.45;64.77;100798.69;15834193;28;20040;-60
2021/08/17 22:10:54;;;;;;;1999.90;999.90;;;;;;;17.49;64.98;100799.53;15823154;28;20058;-59
2021/08/17 22:18:26;;;;;;;1999.90;999.90;;;;;;;17.69;64.13;100800.25;15815752;28;20044;-61
2021/08/17 22:25:59;;;;;;;1999.90;999.90;;;;;;;17.69;63.83;100809.56;15797664;28;20044;-59
2021/08/17 22:33:31;;;;;;;;;;;;;;;17.74;63.30;100800.78;15836027;28;20078;-60
2021/08/17 22:41:05;;;;;;;1999.90;999.90;;;;;;;17.70;63.76;100805.56;15819939;28;19923;-59
2021/08/17 22:48:38;;;;;;;1999.90;999.90;;;;;;;17.33;64.47;100810.16;15808473;28;20431;-58
2021/08/17 22:56:12;;;;;;;1999.90;999.90;;;;;;;17.51;63.85;100814.09;15787203;28;20044;-60
2021/08/17 23:03:45;;;;;;;1999.90;999.90;;;;;;;17.82;63.65;100801.69;15803385;28;20424;-59
2021/08/17 23:11:19;;;;;;;1999.90;999.90;;;;;;;17.89;63.51;100818.75;15751578;28;20059;-60
2021/08/17 23:18:51;;;;;;;1999.90;999.90;;;;;;;17.52;64.12;100810.09;15780548;28;20044;-59
2021/08/17 23:26:25;;;;;;;1999.90;999.90;;;;;;;17.59;64.45;100801.72;15807825;28;20055;-61
2021/08/17 23:33:58;;;;;;;1999.90;999.90;;;;;;;17.68;63.89;100807.91;15827781;28;20411;-61
2021/08/17 23:41:32;;;;;;;1999.90;999.90;;;;;;;17.57;63.86;100801.28;15833391;28;20040;-60
2021/08/17 23:49:05;;;;;;;1999.90;999.90;;;;;;;17.48;63.77;100798.72;15791785;28;20040;-61
2021/08/17 23:56:39;;;;;;;1999.90;999.90;;;;;;;17.50;63.43;100809.63;15797771;28;20278;-61
